ESGG

Gothenburg-Landvetter Airport

Gothenburg, Sweden
TAF ESGG 160530Z 1606/1706 10010KT 9999 SCT009 OVC015 PROB40 1606/1617 4000 -SHSN BKN009 BECMG 1617/1619 4000 -SN BKN007 TEMPO 1619/1624 2000 SN VV012 BECMG 1700/1702 VRB02KT 2500 BR OVC004
Issued Valid From Valid To
Dec-16 @ 05:30 UTC
(49 minutes ago)
Dec-16 @ 06:00 UTC
(19 minutes ago)
Dec-17 @ 06:00 UTC
(in 24 hours)
Dec-16 @ 06:00 to Dec-16 @ 17:00
TAF ESGG 160530Z 1606/1706 10010KT 9999 SCT009 OVC015
Wind Visibility Clouds
100° at 10 knots 10,000+ meters
  • Scattered at 900' AGL
  • Overcast at 1,500' AGL
Probable  (Probability 40%) Dec-16 @ 06:00 to Dec-16 @ 17:00
PROB40 1606/1617 4000 -SHSN BKN009
Visibility Clouds Conditions
4,007 meters
  • Broken at 900' AGL
  • Light Snow
Becoming Dec-16 @ 17:00 to Dec-17 @ 00:00
BECMG 1617/1619 4000 -SN BKN007
Wind Visibility Clouds Conditions
100° at 10 knots 4,007 meters
  • Broken at 700' AGL
  • Light Snow
Temporary Dec-16 @ 19:00 to Dec-17 @ 00:00
TEMPO 1619/1624 2000 SN VV012
Visibility Clouds Conditions
1,996 meters
  • Vertical visibility at 1,200' AGL
  • Snow
Becoming Dec-17 @ 00:00 to Dec-17 @ 06:00
BECMG 1700/1702 VRB02KT 2500 BR OVC004
Wind Visibility Clouds Conditions
Variable at 2 knots 2,494 meters
  • Overcast at 400' AGL
  • Mist
TAF ESGG 160530Z 1606/1706 10010KT 9999 SCT009 OVC015 PROB40 1606/1617 4000 -SHSN BKN009 BECMG 1617/1619 4000 -SN BKN007 TEMPO 1619/1624 2000 SN VV012 BECMG 1700/1702 VRB02KT 2500 BR OVC004
Issued Dec-16 @ 05:30 UTC
(49 minutes ago)
Valid From Dec-16 @ 06:00 UTC
(19 minutes ago)
Valid To Dec-17 @ 06:00 UTC
(in 24 hours)
Dec-16 @ 06:00 - Dec-16 @ 17:00
Wind Visibility
100° at 10 knots 10,000+ meters
Clouds
  • Scattered at 900' AGL
  • Overcast at 1,500' AGL
Probability 40% Probable Dec-16 @ 06:00 - Dec-16 @ 17:00
Clouds
  • Broken at 900' AGL
Conditions
  • Light Snow
Becoming Dec-16 @ 17:00 - Dec-17 @ 00:00
Wind Visibility
100° at 10 knots 4,007 meters
Clouds
  • Broken at 700' AGL
Conditions
  • Light Snow
Temporary Dec-16 @ 19:00 - Dec-17 @ 00:00
Clouds
  • Vertical visibility at 1,200' AGL
Conditions
  • Snow
Becoming Dec-17 @ 00:00 - Dec-17 @ 06:00
Wind Visibility
Variable at 2 knots 2,494 meters
Clouds
  • Overcast at 400' AGL
Conditions
  • Mist